createdAt,value
2017-07-17T00:01:46.109Z,82.67
2017-07-17T00:04:17.327Z,82.77
2017-07-17T00:06:48.156Z,83.13
2017-07-17T00:09:15.845Z,83.33
2017-07-17T00:11:46.286Z,83.97
2017-07-17T00:14:14.820Z,84.05
2017-07-17T00:16:46.544Z,84.26
2017-07-17T00:19:14.190Z,84.13
2017-07-17T00:21:49.471Z,84.00
2017-07-17T00:24:19.084Z,84.29
2017-07-17T00:29:25.879Z,83.61
2017-07-17T00:34:37.556Z,84.15
2017-07-17T00:39:52.727Z,83.50
2017-07-17T00:42:23.953Z,83.28
2017-07-17T00:44:54.228Z,83.64
2017-07-17T00:47:22.653Z,83.73
2017-07-17T00:49:50.972Z,83.21
2017-07-17T00:52:20.470Z,83.23
2017-07-17T00:54:51.584Z,83.21
2017-07-17T00:57:37.522Z,83.65
2017-07-17T01:00:05.203Z,83.66
2017-07-17T01:02:40.375Z,83.97
2017-07-17T01:05:08.118Z,84.01
2017-07-17T01:07:37.604Z,83.35
2017-07-17T01:10:08.435Z,83.26
2017-07-17T01:12:42.008Z,83.00
2017-07-17T01:15:13.229Z,82.92
2017-07-17T01:17:45.190Z,83.05
2017-07-17T01:20:14.692Z,82.98
2017-07-17T01:22:44.175Z,83.02
2017-07-17T01:25:11.853Z,82.94
2017-07-17T01:27:39.504Z,82.85
2017-07-17T01:30:08.650Z,82.76
2017-07-17T01:32:39.152Z,82.68
2017-07-17T01:35:13.847Z,82.77
2017-07-17T01:37:44.882Z,82.57
2017-07-17T01:40:12.586Z,82.79
2017-07-17T01:42:41.853Z,82.86
2017-07-17T01:45:14.178Z,82.91
2017-07-17T01:47:41.846Z,82.89
2017-07-17T01:50:10.338Z,82.89
2017-07-17T01:52:40.907Z,82.66
2017-07-17T01:55:08.682Z,82.65
2017-07-17T01:57:43.141Z,82.87
2017-07-17T02:00:12.250Z,82.82
2017-07-17T02:02:39.916Z,82.67
2017-07-17T02:05:07.623Z,82.80
2017-07-17T02:07:35.373Z,82.93
2017-07-17T02:12:56.930Z,82.96
2017-07-17T02:15:24.661Z,82.85
2017-07-17T02:17:53.656Z,83.06
2017-07-17T02:20:32.445Z,83.09
2017-07-17T02:23:00.186Z,83.04
2017-07-17T02:25:28.138Z,83.01
2017-07-17T02:27:55.778Z,82.88
2017-07-17T02:30:28.472Z,83.15
2017-07-17T02:35:30.275Z,83.31
2017-07-17T02:37:58.864Z,83.28
2017-07-17T02:40:26.558Z,83.31
2017-07-17T02:42:54.342Z,83.41
2017-07-17T02:48:03.384Z,83.40
2017-07-17T02:50:32.761Z,83.52
2017-07-17T02:53:02.365Z,83.44
2017-07-17T02:55:31.937Z,83.45
2017-07-17T02:58:01.197Z,83.34
2017-07-17T03:00:31.926Z,83.35
2017-07-17T03:03:02.252Z,83.23
2017-07-17T03:05:33.133Z,83.26
2017-07-17T03:08:04.102Z,83.22
2017-07-17T03:10:32.027Z,83.47
2017-07-17T03:12:59.672Z,83.33
2017-07-17T03:15:27.300Z,83.20
2017-07-17T03:17:54.964Z,83.12
2017-07-17T03:20:22.609Z,83.07
2017-07-17T03:22:50.265Z,83.15
2017-07-17T03:25:18.797Z,83.34
2017-07-17T03:27:47.197Z,83.30
2017-07-17T03:30:14.893Z,83.44
2017-07-17T03:32:42.647Z,83.43
2017-07-17T03:35:10.306Z,83.57
2017-07-17T03:37:38.797Z,83.69
2017-07-17T03:40:06.448Z,83.47
2017-07-17T03:42:34.340Z,83.37
2017-07-17T03:45:02.104Z,83.26
2017-07-17T03:47:30.541Z,83.14
2017-07-17T03:49:58.176Z,83.13
2017-07-17T03:52:25.876Z,83.17
2017-07-17T03:54:53.528Z,83.08
2017-07-17T03:57:21.219Z,83.01
2017-07-17T03:59:48.936Z,82.99
2017-07-17T04:02:16.625Z,83.07
2017-07-17T04:04:44.261Z,83.37
2017-07-17T04:07:11.945Z,83.27
2017-07-17T04:09:39.568Z,82.94
2017-07-17T04:12:07.273Z,82.97
2017-07-17T04:14:34.927Z,83.00
2017-07-17T04:17:02.684Z,83.16
2017-07-17T04:19:30.340Z,83.13
2017-07-17T04:21:58.043Z,83.13
2017-07-17T04:24:26.357Z,83.21
2017-07-17T04:26:54.750Z,83.31
2017-07-17T04:29:22.480Z,83.39
2017-07-17T04:31:50.722Z,83.48
2017-07-17T04:34:18.372Z,83.03
2017-07-17T04:36:45.993Z,83.30
2017-07-17T04:39:13.782Z,83.06
2017-07-17T04:41:41.460Z,83.27
2017-07-17T04:44:09.118Z,83.27
2017-07-17T04:46:36.761Z,83.33
2017-07-17T04:49:04.536Z,83.15
2017-07-17T04:51:32.222Z,83.20
2017-07-17T04:53:59.895Z,83.12
2017-07-17T04:56:27.624Z,83.07
2017-07-17T04:58:55.318Z,83.20
2017-07-17T05:01:23.012Z,83.17
2017-07-17T05:03:50.708Z,83.21
2017-07-17T05:06:18.356Z,83.28
2017-07-17T05:08:46.074Z,83.17
2017-07-17T05:11:14.239Z,83.23
2017-07-17T05:13:41.902Z,83.01
2017-07-17T05:16:09.648Z,83.17
2017-07-17T05:18:38.936Z,83.08
2017-07-17T05:21:06.753Z,82.97
2017-07-17T05:23:34.668Z,83.15
2017-07-17T05:26:02.361Z,83.78
2017-07-17T05:28:30.961Z,83.90
2017-07-17T05:30:58.681Z,83.71
2017-07-17T05:33:26.415Z,83.21
2017-07-17T05:35:54.986Z,83.16
2017-07-17T05:38:22.654Z,82.96
2017-07-17T05:40:50.387Z,82.87
2017-07-17T05:43:18.351Z,83.01
2017-07-17T05:45:46.903Z,83.01
2017-07-17T05:48:14.620Z,83.86
2017-07-17T05:50:42.309Z,83.71
2017-07-17T05:53:10.007Z,84.43
2017-07-17T05:55:38.012Z,84.33
2017-07-17T05:58:05.834Z,85.83
2017-07-17T06:00:33.569Z,87.17
2017-07-17T06:03:01.319Z,87.97
2017-07-17T06:05:29.353Z,89.00
2017-07-17T06:07:57.097Z,89.65
2017-07-17T06:10:36.121Z,89.84
2017-07-17T06:13:03.894Z,90.49
2017-07-17T06:15:31.747Z,90.17
2017-07-17T06:17:59.898Z,90.27
2017-07-17T06:20:29.473Z,90.91
2017-07-17T06:23:01.626Z,91.25
2017-07-17T06:25:31.262Z,91.86
2017-07-17T06:27:59.725Z,92.23
2017-07-17T06:30:27.845Z,92.58
2017-07-17T06:32:55.632Z,92.94
2017-07-17T06:35:23.579Z,93.20
2017-07-17T06:37:51.299Z,93.53
2017-07-17T06:40:19.081Z,93.63
2017-07-17T06:42:46.760Z,93.82
2017-07-17T06:45:15.151Z,93.65
2017-07-17T06:47:42.803Z,93.54
2017-07-17T06:50:10.456Z,93.40
2017-07-17T06:52:39.979Z,93.75
2017-07-17T06:55:07.696Z,92.80
2017-07-17T06:57:35.355Z,93.24
2017-07-17T07:00:03.066Z,93.16
2017-07-17T07:02:30.760Z,93.07
2017-07-17T07:04:58.453Z,93.71
2017-07-17T07:07:26.159Z,93.95
2017-07-17T07:09:53.807Z,93.45
2017-07-17T07:12:21.566Z,93.03
2017-07-17T07:14:49.214Z,92.76
2017-07-17T07:17:16.958Z,92.19
2017-07-17T07:19:44.710Z,92.89
2017-07-17T07:22:12.453Z,92.94
2017-07-17T07:24:40.327Z,93.41
2017-07-17T07:27:08.014Z,93.76
2017-07-17T07:29:35.697Z,93.71
2017-07-17T07:32:03.461Z,93.66
2017-07-17T07:34:31.170Z,93.64
2017-07-17T07:36:58.903Z,93.44
2017-07-17T07:39:26.628Z,93.46
2017-07-17T07:41:54.344Z,93.13
2017-07-17T07:44:22.997Z,93.35
2017-07-17T07:46:50.742Z,93.62
2017-07-17T07:49:18.566Z,93.22
2017-07-17T07:51:46.293Z,93.26
2017-07-17T07:54:14.285Z,93.19
2017-07-17T07:56:42.069Z,93.52
2017-07-17T07:59:09.845Z,93.65
2017-07-17T08:01:37.658Z,93.45
2017-07-17T08:04:05.341Z,92.98
2017-07-17T08:06:33.081Z,92.68
2017-07-17T08:09:00.846Z,92.88
2017-07-17T08:11:28.663Z,92.66
2017-07-17T08:13:56.517Z,92.50
2017-07-17T08:16:24.291Z,93.09
2017-07-17T08:18:51.996Z,93.46
2017-07-17T08:21:19.772Z,93.59
2017-07-17T08:23:47.448Z,93.91
2017-07-17T08:26:15.225Z,93.48
2017-07-17T08:28:43.068Z,93.13
2017-07-17T08:31:10.742Z,93.19
2017-07-17T08:33:38.410Z,93.49
2017-07-17T08:36:06.033Z,93.69
2017-07-17T08:38:33.712Z,93.74
2017-07-17T08:41:01.331Z,93.93
2017-07-17T08:43:29.732Z,93.41
2017-07-17T08:45:57.404Z,92.96
2017-07-17T08:48:25.108Z,93.24
2017-07-17T08:50:52.897Z,93.42
2017-07-17T08:53:20.799Z,93.44
2017-07-17T08:55:48.658Z,93.42
2017-07-17T08:58:16.470Z,93.10
2017-07-17T09:00:44.226Z,92.98
2017-07-17T09:03:11.959Z,92.46
2017-07-17T09:05:39.631Z,92.27
2017-07-17T09:08:07.264Z,92.19
2017-07-17T09:10:34.965Z,92.05
2017-07-17T09:13:02.626Z,91.44
2017-07-17T09:15:30.462Z,91.23
2017-07-17T09:17:58.222Z,90.40
2017-07-17T09:20:26.099Z,89.65
2017-07-17T09:22:53.854Z,89.62
2017-07-17T09:25:21.553Z,88.33
2017-07-17T09:27:49.349Z,87.83
2017-07-17T09:30:17.975Z,88.27
2017-07-17T09:32:45.722Z,88.38
2017-07-17T09:35:13.498Z,87.57
2017-07-17T09:37:41.255Z,86.62
2017-07-17T09:40:09.128Z,86.35
2017-07-17T09:42:36.951Z,86.92
2017-07-17T09:45:04.801Z,86.36
2017-07-17T09:47:32.690Z,85.80
2017-07-17T09:50:00.641Z,85.96
2017-07-17T09:52:28.528Z,86.13
2017-07-17T09:54:56.394Z,84.46
2017-07-17T09:57:24.128Z,84.92
2017-07-17T09:59:51.883Z,84.26
2017-07-17T10:02:19.876Z,84.31
2017-07-17T10:04:47.800Z,84.21
2017-07-17T10:07:15.564Z,83.88
2017-07-17T10:09:43.283Z,84.29
2017-07-17T10:12:11.027Z,84.37
2017-07-17T10:14:38.824Z,83.67
2017-07-17T10:17:06.773Z,82.94
2017-07-17T10:19:34.713Z,82.52
2017-07-17T10:22:02.571Z,82.10
2017-07-17T10:24:30.415Z,82.58
2017-07-17T10:26:58.271Z,81.48
2017-07-17T10:29:26.998Z,82.16
2017-07-17T10:31:54.831Z,81.47
2017-07-17T10:34:22.581Z,80.71
2017-07-17T10:36:50.432Z,81.71
2017-07-17T10:39:18.340Z,82.66
2017-07-17T10:41:46.192Z,82.82
2017-07-17T10:44:14.088Z,82.94
2017-07-17T10:46:41.873Z,81.91
2017-07-17T10:49:09.776Z,80.12
2017-07-17T10:51:37.511Z,79.80
2017-07-17T10:54:05.304Z,79.11
2017-07-17T10:56:33.130Z,78.91
2017-07-17T10:59:00.894Z,77.51
2017-07-17T11:01:28.676Z,77.59
2017-07-17T11:03:56.546Z,78.47
2017-07-17T11:06:24.305Z,77.97
2017-07-17T11:08:52.082Z,78.15
2017-07-17T11:11:19.733Z,78.23
2017-07-17T11:13:47.465Z,77.83
2017-07-17T11:16:15.186Z,77.25
2017-07-17T11:18:42.956Z,76.88
2017-07-17T11:21:10.672Z,76.17
2017-07-17T11:23:38.410Z,76.08
2017-07-17T11:26:06.251Z,75.14
2017-07-17T11:28:33.953Z,75.30
2017-07-17T11:31:01.847Z,76.12
2017-07-17T11:33:29.620Z,75.19
2017-07-17T11:35:57.491Z,76.10
2017-07-17T11:38:25.171Z,75.69
2017-07-17T11:40:53.746Z,76.37
2017-07-17T11:43:21.522Z,74.62
2017-07-17T11:45:49.316Z,73.20
2017-07-17T11:58:22.620Z,72.75
2017-07-17T12:00:50.457Z,71.81
2017-07-17T12:03:18.304Z,71.03
2017-07-17T12:05:46.158Z,70.58
2017-07-17T12:08:14.006Z,70.84
2017-07-17T12:10:41.778Z,70.34
2017-07-17T12:13:09.634Z,69.71
2017-07-17T12:15:37.502Z,70.48
2017-07-17T12:18:05.376Z,69.44
2017-07-17T12:20:33.132Z,69.24
2017-07-17T12:23:00.906Z,70.80
2017-07-17T12:25:28.692Z,69.84
2017-07-17T12:27:56.528Z,70.56
2017-07-17T12:30:24.275Z,70.95
2017-07-17T12:32:52.040Z,70.29
2017-07-17T12:35:19.746Z,69.08
2017-07-17T12:37:47.466Z,67.88
2017-07-17T12:40:15.201Z,64.99
2017-07-17T12:42:43.031Z,65.19
2017-07-17T12:45:10.863Z,64.99
2017-07-17T12:47:38.761Z,63.85
2017-07-17T12:50:06.524Z,63.88
2017-07-17T12:52:34.276Z,62.17
2017-07-17T12:55:01.920Z,60.67
2017-07-17T12:57:29.669Z,61.10
2017-07-17T12:59:57.570Z,59.60
2017-07-17T13:02:25.291Z,60.60
2017-07-17T13:04:53.504Z,59.58
2017-07-17T13:07:21.240Z,57.82
2017-07-17T13:09:48.944Z,58.25
2017-07-17T13:12:16.618Z,59.87
2017-07-17T13:14:44.346Z,57.26
2017-07-17T13:17:12.068Z,57.95
2017-07-17T13:19:39.867Z,59.25
2017-07-17T13:22:07.668Z,58.41
2017-07-17T13:24:35.552Z,59.34
2017-07-17T13:27:03.322Z,59.38
2017-07-17T13:29:31.101Z,60.09
2017-07-17T13:31:59.064Z,59.67
2017-07-17T13:34:26.809Z,59.41
2017-07-17T13:36:54.531Z,57.57
2017-07-17T13:39:22.210Z,58.53
2017-07-17T13:41:49.935Z,57.71
2017-07-17T13:44:17.647Z,55.77
2017-07-17T13:46:45.286Z,56.52
2017-07-17T13:49:13.006Z,55.95
2017-07-17T13:51:40.770Z,54.92
2017-07-17T13:54:08.480Z,55.28
2017-07-17T13:56:36.195Z,53.76
2017-07-17T13:59:03.968Z,54.02
2017-07-17T14:01:31.615Z,53.46
2017-07-17T14:03:59.518Z,53.51
2017-07-17T14:06:27.331Z,51.88
2017-07-17T14:08:55.190Z,50.09
2017-07-17T14:11:23.089Z,49.27
2017-07-17T14:13:51.152Z,51.07
2017-07-17T14:16:19.201Z,49.03
2017-07-17T14:18:47.152Z,48.83
2017-07-17T14:21:14.987Z,47.53
2017-07-17T14:23:42.895Z,48.22
2017-07-17T14:26:10.650Z,48.37
2017-07-17T14:28:38.857Z,49.29
2017-07-17T14:31:06.671Z,46.79
2017-07-17T14:33:34.504Z,46.04
2017-07-17T14:36:02.495Z,45.99
2017-07-17T14:38:30.910Z,44.51
2017-07-17T14:40:58.760Z,43.91
2017-07-17T14:43:26.752Z,42.67
2017-07-17T14:45:54.583Z,43.05
2017-07-17T14:48:22.313Z,42.49
2017-07-17T14:50:50.156Z,43.17
2017-07-17T14:53:17.929Z,44.01
2017-07-17T14:55:45.731Z,44.59
2017-07-17T14:58:13.481Z,42.93
2017-07-17T15:00:41.290Z,43.20
2017-07-17T15:03:09.280Z,43.36
2017-07-17T15:05:37.042Z,42.74
2017-07-17T15:08:04.932Z,43.24
2017-07-17T15:10:32.671Z,42.44
2017-07-17T15:13:00.428Z,41.35
2017-07-17T15:15:28.197Z,42.77
2017-07-17T15:17:56.002Z,43.46
2017-07-17T15:20:23.663Z,44.19
2017-07-17T15:22:51.761Z,44.47
2017-07-17T15:25:19.649Z,44.25
2017-07-17T15:27:47.513Z,42.44
2017-07-17T15:30:15.342Z,43.63
2017-07-17T15:32:43.711Z,43.73
2017-07-17T15:35:11.500Z,42.82
2017-07-17T15:37:39.246Z,43.21
2017-07-17T15:40:06.962Z,41.76
2017-07-17T15:42:34.766Z,42.02
2017-07-17T15:45:02.651Z,42.37
2017-07-17T15:47:30.442Z,41.55
2017-07-17T15:49:58.535Z,41.99
2017-07-17T15:52:26.360Z,41.89
2017-07-17T15:54:54.106Z,41.73
2017-07-17T15:57:21.890Z,41.38
2017-07-17T15:59:49.757Z,41.11
2017-07-17T16:02:17.548Z,41.84
2017-07-17T16:04:45.294Z,42.18
2017-07-17T16:07:13.086Z,42.82
2017-07-17T16:09:40.895Z,40.76
2017-07-17T16:12:08.936Z,39.15
2017-07-17T16:14:37.391Z,38.71
2017-07-17T16:17:05.250Z,38.62
2017-07-17T16:19:33.118Z,38.44
2017-07-17T16:22:01.068Z,38.86
2017-07-17T16:24:28.881Z,38.30
2017-07-17T16:27:03.121Z,39.98
2017-07-17T16:32:48.265Z,38.29
2017-07-17T16:35:19.667Z,36.98
2017-07-17T16:37:52.369Z,37.71
2017-07-17T16:40:20.393Z,36.76
2017-07-17T16:42:48.287Z,36.87
2017-07-17T16:45:16.196Z,37.67
2017-07-17T16:47:44.001Z,37.52
2017-07-17T16:50:11.904Z,36.43
2017-07-17T16:52:39.653Z,37.33
2017-07-17T16:55:07.827Z,36.36
2017-07-17T16:57:35.822Z,36.53
2017-07-17T17:00:03.778Z,36.83
2017-07-17T17:02:31.628Z,37.27
2017-07-17T17:04:59.551Z,36.93
2017-07-17T17:07:27.409Z,37.63
2017-07-17T17:09:55.234Z,38.09
2017-07-17T17:12:24.116Z,36.66
2017-07-17T17:14:52.032Z,36.54
2017-07-17T17:17:19.841Z,36.74
2017-07-17T17:19:47.768Z,36.57
2017-07-17T17:22:15.676Z,35.77
2017-07-17T17:24:43.512Z,36.44
2017-07-17T17:27:11.423Z,36.20
2017-07-17T17:29:39.344Z,37.52
2017-07-17T17:32:07.968Z,36.93
2017-07-17T17:34:35.894Z,37.91
2017-07-17T17:37:03.895Z,36.82
2017-07-17T17:39:32.054Z,37.97
2017-07-17T17:41:59.906Z,38.29
2017-07-17T17:44:27.744Z,38.14
2017-07-17T17:46:55.661Z,37.62
2017-07-17T17:49:23.381Z,37.47
2017-07-17T17:51:51.244Z,37.67
2017-07-17T17:54:18.965Z,38.10
2017-07-17T17:56:46.809Z,37.46
2017-07-17T17:59:14.518Z,37.52
2017-07-17T18:01:42.224Z,37.31
2017-07-17T18:04:09.950Z,37.33
2017-07-17T18:06:37.780Z,38.25
2017-07-17T18:09:05.587Z,38.47
2017-07-17T18:11:33.291Z,38.19
2017-07-17T18:14:00.940Z,38.07
2017-07-17T18:16:28.685Z,38.26
2017-07-17T18:18:56.496Z,38.28
2017-07-17T18:21:24.290Z,38.06
2017-07-17T18:23:51.973Z,38.50
2017-07-17T18:26:19.629Z,39.11
2017-07-17T18:28:47.427Z,39.12
2017-07-17T18:31:15.030Z,38.62
2017-07-17T18:33:42.696Z,38.62
2017-07-17T18:36:10.358Z,38.93
2017-07-17T18:38:38.015Z,39.69
2017-07-17T18:41:05.660Z,39.84
2017-07-17T18:43:33.393Z,39.73
2017-07-17T18:46:01.015Z,39.59
2017-07-17T18:48:28.727Z,39.83
2017-07-17T18:50:56.426Z,40.27
2017-07-17T18:53:24.156Z,39.88
2017-07-17T18:55:51.859Z,40.54
2017-07-17T18:58:19.817Z,40.64
2017-07-17T19:00:47.519Z,41.36
2017-07-17T19:03:15.240Z,41.19
2017-07-17T19:05:43.060Z,41.14
2017-07-17T19:08:11.010Z,41.49
2017-07-17T19:10:39.068Z,41.97
2017-07-17T19:13:06.892Z,41.92
2017-07-17T19:15:34.783Z,42.11
2017-07-17T19:18:02.614Z,42.39
2017-07-17T19:20:30.431Z,42.78
2017-07-17T19:22:58.310Z,43.26
2017-07-17T19:25:26.537Z,43.45
2017-07-17T19:27:55.212Z,43.83
2017-07-17T19:30:23.183Z,44.11
2017-07-17T19:32:50.966Z,44.35
2017-07-17T19:35:18.803Z,44.89
2017-07-17T19:37:46.585Z,44.91
2017-07-17T19:40:14.422Z,44.81
2017-07-17T19:42:42.192Z,44.86
2017-07-17T19:45:10.101Z,44.86
2017-07-17T19:47:37.854Z,44.84
2017-07-17T19:50:05.640Z,45.27
2017-07-17T19:52:33.415Z,45.30
2017-07-17T19:55:01.395Z,45.07
2017-07-17T19:57:29.194Z,45.15
2017-07-17T19:59:56.959Z,45.38
2017-07-17T20:02:24.710Z,45.25
2017-07-17T20:04:52.536Z,45.93
2017-07-17T20:24:53.609Z,47.98
2017-07-17T20:33:24.504Z,49.06
2017-07-17T20:35:52.462Z,50.23
2017-07-17T20:38:21.630Z,50.67
2017-07-17T20:43:43.471Z,50.15
2017-07-17T20:46:11.291Z,51.08
2017-07-17T20:48:39.316Z,51.51
2017-07-17T20:51:07.231Z,51.03
2017-07-17T20:53:35.162Z,52.63
2017-07-17T20:56:03.164Z,52.12
2017-07-17T20:58:31.024Z,52.64
2017-07-17T21:00:58.931Z,52.83
2017-07-17T21:03:26.750Z,53.37
2017-07-17T21:05:55.569Z,53.02
2017-07-17T21:08:25.030Z,53.33
2017-07-17T21:10:52.869Z,53.22
2017-07-17T21:13:20.757Z,52.55
2017-07-17T21:15:49.168Z,52.41
2017-07-17T21:18:16.859Z,52.79
2017-07-17T21:20:44.526Z,53.60
2017-07-17T21:23:12.794Z,54.41
2017-07-17T21:25:44.285Z,55.02
2017-07-17T21:28:13.520Z,55.48
2017-07-17T21:30:42.292Z,56.06
2017-07-17T21:33:11.690Z,56.83
2017-07-17T21:35:40.194Z,57.57
2017-07-17T21:38:08.487Z,57.59
2017-07-17T21:40:36.645Z,57.53
2017-07-17T21:43:04.631Z,57.79
2017-07-17T21:45:32.864Z,57.84
2017-07-17T21:48:00.896Z,58.60
2017-07-17T21:50:29.379Z,58.87
2017-07-17T21:52:57.651Z,59.69
2017-07-17T21:55:25.973Z,59.81
2017-07-17T21:57:54.600Z,59.83
2017-07-17T22:00:22.898Z,60.15
2017-07-17T22:02:53.714Z,60.88
2017-07-17T22:05:22.206Z,61.23
2017-07-17T22:07:50.371Z,60.78
2017-07-17T22:10:18.567Z,60.10
2017-07-17T22:12:46.758Z,61.66
2017-07-17T22:15:15.073Z,62.49
2017-07-17T22:17:43.318Z,62.97
2017-07-17T22:20:11.695Z,62.88
2017-07-17T22:22:40.179Z,62.81
2017-07-17T22:25:08.582Z,63.05
2017-07-17T22:27:36.932Z,63.70
2017-07-17T22:30:05.434Z,64.15
2017-07-17T22:32:34.558Z,64.15
2017-07-17T22:35:02.894Z,64.58
2017-07-17T22:37:31.267Z,64.67
2017-07-17T22:39:59.688Z,64.51
2017-07-17T22:42:28.017Z,65.23
2017-07-17T22:44:56.453Z,65.68
2017-07-17T22:47:24.832Z,65.83
2017-07-17T22:49:53.365Z,65.28
2017-07-17T22:52:21.866Z,65.02
2017-07-17T22:54:50.511Z,65.47
2017-07-17T22:57:18.673Z,66.20
2017-07-17T22:59:46.886Z,66.76
2017-07-17T23:02:15.146Z,66.98
2017-07-17T23:04:43.014Z,66.73
2017-07-17T23:07:10.942Z,67.08
2017-07-17T23:09:39.158Z,67.06
2017-07-17T23:12:07.410Z,67.41
2017-07-17T23:14:35.721Z,66.96
2017-07-17T23:17:04.054Z,66.69
2017-07-17T23:19:32.608Z,67.06
2017-07-17T23:22:02.488Z,68.22
2017-07-17T23:24:30.718Z,68.17
2017-07-17T23:26:59.368Z,68.00
2017-07-17T23:29:27.983Z,68.12
2017-07-17T23:31:56.214Z,68.05
2017-07-17T23:34:25.087Z,67.68
2017-07-17T23:36:53.549Z,68.25
2017-07-17T23:39:21.952Z,67.98
2017-07-17T23:41:50.364Z,68.70
2017-07-17T23:44:18.906Z,68.52
2017-07-17T23:46:47.392Z,68.45
2017-07-17T23:49:15.369Z,68.33
2017-07-17T23:51:43.405Z,68.05
2017-07-17T23:54:11.213Z,68.49
2017-07-17T23:56:39.766Z,68.35
2017-07-17T23:59:07.790Z,68.53
